Time;durP1;ratioP1;P1;durP2;ratioP2;P2;SDS_P1;SDS_P2;PMS_P1;PMS_P2;Temp;Humidity;BMP_temperature;BMP_pressure;BME280_temperature;BME280_humidity;BME280_pressure;Samples;Min_cycle;Max_cycle;Signal;HPM_P1;HPM_P2
2022/04/10 00:00:39;;;;;;;8.57;6.28;;;128.90;2252.80;;;;;;5029516;28;20394;-54
2022/04/10 00:03:05;;;;;;;9.23;7.15;;;153.60;2252.80;;;;;;5029738;28;20419;-53
2022/04/10 00:05:31;;;;;;;8.15;6.47;;;153.60;2252.80;;;;;;5029460;28;20026;-53
2022/04/10 00:07:56;;;;;;;9.02;6.70;;;153.70;2252.80;;;;;;5029264;28;20038;-54
2022/04/10 00:10:22;;;;;;;8.50;6.32;;;153.70;2252.80;;;;;;5029460;28;20049;-53
2022/04/10 00:12:48;;;;;;;9.38;6.10;;;153.70;2252.80;;;;;;5028991;28;20033;-53
2022/04/10 00:15:14;;;;;;;7.85;5.70;;;128.90;2252.80;;;;;;5029584;28;20056;-54
2022/04/10 00:17:41;;;;;;;8.82;6.47;;;128.80;2252.80;;;;;;5028838;28;20069;-54
2022/04/10 00:20:09;;;;;;;8.02;5.88;;;153.60;2252.80;;;;;;5028362;28;20467;-54
2022/04/10 00:22:42;;;;;;;9.82;6.28;;;153.70;2252.80;;;;;;5029290;28;20052;-54
2022/04/10 00:25:09;;;;;;;;;;;153.70;2252.80;;;;;;5029304;28;20113;-55
2022/04/10 00:27:35;;;;;;;7.57;6.13;;;153.60;2252.80;;;;;;5028854;28;19925;-53
2022/04/10 00:30:00;;;;;;;8.25;5.00;;;128.90;2252.80;;;;;;5029222;28;20052;-53
2022/04/10 00:32:27;;;;;;;5.82;4.43;;;128.90;2252.80;;;;;;5028707;28;20124;-54
2022/04/10 00:34:53;;;;;;;8.85;5.03;;;128.90;2252.80;;;;;;5026357;28;20492;-55
2022/04/10 00:37:19;;;;;;;7.30;4.25;;;128.90;2252.80;;;;;;5028745;28;20048;-53
2022/04/10 00:39:45;;;;;;;5.80;4.22;;;128.80;2252.80;;;;;;5029127;28;20029;-54
2022/04/10 00:42:11;;;;;;;5.47;3.92;;;128.80;2252.80;;;;;;5028974;28;20025;-54
2022/04/10 00:44:37;;;;;;;6.00;4.13;;;128.70;2252.80;;;;;;5028859;28;20029;-54
2022/04/10 00:47:03;;;;;;;5.07;3.78;;;128.70;2252.80;;;;;;5029013;28;20523;-54
2022/04/10 00:49:29;;;;;;;4.30;3.20;;;128.70;2252.80;;;;;;5030050;28;20026;-54
2022/04/10 00:51:56;;;;;;;4.55;3.25;;;128.70;2252.80;;;;;;5030180;28;20033;-54
2022/04/10 00:54:26;;;;;;;5.90;3.45;;;128.60;2252.80;;;;;;5030325;28;20060;-54
2022/04/10 00:56:53;;;;;;;4.07;3.00;;;128.60;2252.80;;;;;;5030154;28;20080;-54
2022/04/10 00:59:18;;;;;;;3.45;2.30;;;128.70;2252.80;;;;;;5029900;28;20079;-54
2022/04/10 01:01:45;;;;;;;3.28;2.35;;;128.70;2252.80;;;;;;5030230;28;20108;-54
2022/04/10 01:04:16;;;;;;;3.22;2.17;;;128.60;2252.80;;;;;;5030050;28;20018;-54
2022/04/10 01:06:43;;;;;;;2.95;1.70;;;128.50;2252.80;;;;;;5030049;28;20108;-55
2022/04/10 01:09:09;;;;;;;4.18;2.03;;;128.40;2252.80;;;;;;5030024;28;20036;-53
2022/04/10 01:11:35;;;;;;;2.65;1.63;;;128.40;2252.80;;;;;;5030076;28;20036;-54
2022/04/10 01:14:04;;;;;;;2.63;1.55;;;128.20;2252.80;;;;;;5030104;28;20499;-54
2022/04/10 01:16:33;;;;;;;2.92;1.60;;;128.30;2252.80;;;;;;5029947;28;20039;-54
2022/04/10 01:19:01;;;;;;;3.97;1.70;;;128.00;2252.80;;;;;;5029872;28;20444;-54
2022/04/10 01:21:30;;;;;;;2.90;1.55;;;128.00;2252.80;;;;;;5029812;28;20021;-55
2022/04/10 01:23:57;;;;;;;2.13;1.30;;;128.00;2252.80;;;;;;5029791;28;20044;-55
2022/04/10 01:26:24;;;;;;;2.22;1.27;;;103.30;2227.20;;;;;;5029794;28;20105;-54
2022/04/10 01:29:11;;;;;;;1.30;0.88;;;103.30;2227.20;;;;;;5029453;28;20037;-54
2022/04/10 01:31:41;;;;;;;2.08;1.25;;;103.30;2227.20;;;;;;5030512;28;20029;-54
2022/04/10 01:34:08;;;;;;;1.50;0.88;;;103.20;2227.20;;;;;;5033458;28;20058;-54
2022/04/10 01:36:36;;;;;;;2.70;1.10;;;103.00;2227.20;;;;;;5033910;28;20026;-54
2022/04/10 01:39:04;;;;;;;2.65;1.00;;;103.00;2227.20;;;;;;5033557;28;20044;-53
2022/04/10 01:41:31;;;;;;;1.00;0.88;;;103.00;2227.20;;;;;;5033516;28;20030;-54
2022/04/10 01:43:59;;;;;;;1.65;1.15;;;102.90;2227.20;;;;;;5033508;28;20029;-54
2022/04/10 01:46:30;;;;;;;1.25;0.95;;;103.00;2227.20;;;;;;5033559;28;20499;-54
2022/04/10 01:48:56;;;;;;;1.08;0.77;;;103.00;2227.20;;;;;;5033454;28;20088;-54
2022/04/10 01:51:23;;;;;;;1.98;0.95;;;103.20;2227.20;;;;;;5033413;28;20021;-54
2022/04/10 01:53:49;;;;;;;1.30;0.80;;;103.20;2227.20;;;;;;5033056;28;20434;-53
2022/04/10 01:56:15;;;;;;;1.35;0.85;;;103.10;2227.20;;;;;;5033237;28;20017;-54
2022/04/10 01:58:43;;;;;;;1.52;0.73;;;103.00;2227.20;;;;;;5033491;28;20383;-55
2022/04/10 02:01:11;;;;;;;1.08;0.70;;;103.10;2227.20;;;;;;5033033;28;20598;-53
2022/04/10 02:03:38;;;;;;;2.10;0.93;;;103.00;2227.20;;;;;;5033036;28;20025;-54
2022/04/10 02:06:05;;;;;;;1.67;1.00;;;103.00;2227.20;;;;;;5033370;28;20029;-54
2022/04/10 02:08:31;;;;;;;1.13;0.70;;;103.00;2227.20;;;;;;5032859;28;20038;-53
2022/04/10 02:10:58;;;;;;;1.60;0.95;;;103.10;2227.20;;;;;;5032882;28;20029;-55
2022/04/10 02:13:24;;;;;;;1.20;0.63;;;103.00;2227.20;;;;;;5032769;28;20159;-53
2022/04/10 02:15:50;;;;;;;1.38;0.73;;;103.00;2227.20;;;;;;5032916;28;20104;-55
2022/04/10 02:18:16;;;;;;;0.77;0.60;;;103.00;2227.20;;;;;;5032867;28;20454;-55
2022/04/10 02:20:42;;;;;;;1.55;1.02;;;103.00;2227.20;;;;;;5032894;28;20091;-52
2022/04/10 02:23:08;;;;;;;0.98;0.70;;;103.10;2227.20;;;;;;5032586;28;20033;-53
2022/04/10 02:25:34;;;;;;;1.10;0.70;;;103.10;2227.20;;;;;;5032837;28;20068;-54
2022/04/10 02:28:00;;;;;;;0.93;0.68;;;103.10;2227.20;;;;;;5032574;28;20092;-54
2022/04/10 02:30:26;;;;;;;0.77;0.60;;;103.10;2227.20;;;;;;5032828;28;20021;-53
2022/04/10 02:32:51;;;;;;;2.50;0.82;;;103.20;2227.20;;;;;;5032515;28;20552;-55
2022/04/10 02:35:17;;;;;;;1.27;0.77;;;103.30;2227.20;;;;;;5032364;28;20053;-54
2022/04/10 02:37:46;;;;;;;0.68;0.50;;;103.30;2227.20;;;;;;5032503;28;20030;-54
2022/04/10 02:40:18;;;;;;;1.08;0.70;;;103.30;2227.20;;;;;;5032562;28;20049;-53
2022/04/10 02:42:44;;;;;;;2.30;1.70;;;103.30;2227.20;;;;;;5032241;28;20033;-54
2022/04/10 02:45:10;;;;;;;1.17;0.80;;;103.20;2227.20;;;;;;5031408;28;20025;-54
2022/04/10 02:47:36;;;;;;;1.73;1.30;;;103.20;2227.20;;;;;;5031915;28;20034;-55
2022/04/10 02:50:06;;;;;;;1.60;1.20;;;103.30;2227.20;;;;;;5032433;28;20025;-52
2022/04/10 02:52:31;;;;;;;1.95;1.17;;;103.30;2227.20;;;;;;5032152;28;20028;-54
2022/04/10 02:54:57;;;;;;;1.40;1.30;;;103.30;2227.20;;;;;;5032360;28;20040;-54
2022/04/10 02:57:23;;;;;;;1.75;1.40;;;103.30;2227.20;;;;;;5032066;28;20034;-53
2022/04/10 02:59:48;;;;;;;3.00;1.98;;;128.00;2252.80;;;;;;5032014;28;20017;-54
2022/04/10 03:02:14;;;;;;;2.63;1.50;;;128.00;2252.80;;;;;;5032282;28;20052;-54
2022/04/10 03:04:40;;;;;;;2.05;1.33;;;128.00;2252.80;;;;;;5031897;28;20396;-54
2022/04/10 03:07:06;;;;;;;3.13;2.20;;;128.00;2252.80;;;;;;5031913;28;20075;-54
2022/04/10 03:09:32;;;;;;;2.65;1.73;;;103.30;2227.20;;;;;;5032136;28;20029;-53
2022/04/10 03:11:58;;;;;;;3.97;3.05;;;128.00;2252.80;;;;;;5031620;28;20113;-54
2022/04/10 03:14:24;;;;;;;3.67;2.10;;;128.00;2252.80;;;;;;5032111;28;20108;-54
2022/04/10 03:16:49;;;;;;;3.03;2.05;;;103.30;2227.20;;;;;;5031819;28;20043;-54
2022/04/10 03:19:15;;;;;;;3.42;2.10;;;128.00;2252.80;;;;;;5031951;28;20570;-53
2022/04/10 03:21:41;;;;;;;4.07;2.60;;;103.20;2227.20;;;;;;5031650;28;20076;-54
2022/04/10 03:24:07;;;;;;;5.53;2.35;;;128.00;2252.80;;;;;;5031661;28;20021;-55
2022/04/10 03:26:32;;;;;;;3.92;2.38;;;128.00;2252.80;;;;;;5031990;28;20029;-54
2022/04/10 03:28:58;;;;;;;3.50;2.22;;;128.10;2252.80;;;;;;5031525;28;20515;-54
2022/04/10 03:31:24;;;;;;;5.20;2.85;;;103.30;2227.20;;;;;;5031711;28;20056;-54
2022/04/10 03:33:50;;;;;;;2.80;1.88;;;103.30;2227.20;;;;;;5030975;28;20076;-54
2022/04/10 03:36:17;;;;;;;3.70;2.63;;;103.30;2227.20;;;;;;5031335;28;20087;-55
2022/04/10 03:38:43;;;;;;;39.30;28.50;;;128.00;2252.80;;;;;;5031444;28;20037;-54
2022/04/10 03:41:09;;;;;;;4.85;2.85;;;103.30;2227.20;;;;;;5031053;28;20052;-55
2022/04/10 03:43:35;;;;;;;4.43;2.80;;;128.00;2252.80;;;;;;5031440;28;20044;-54
2022/04/10 03:46:01;;;;;;;4.10;3.00;;;128.00;2252.80;;;;;;5031383;28;20025;-54
2022/04/10 03:48:27;;;;;;;5.07;3.80;;;103.30;2227.20;;;;;;5030920;28;20037;-55
2022/04/10 03:50:53;;;;;;;4.35;2.80;;;128.10;2252.80;;;;;;5031241;28;20036;-55
2022/04/10 03:53:19;;;;;;;4.00;2.55;;;128.20;2252.80;;;;;;5030922;28;20099;-54
2022/04/10 03:55:45;;;;;;;4.60;2.80;;;128.00;2252.80;;;;;;5031040;28;20022;-54
2022/04/10 03:58:11;;;;;;;8.98;6.32;;;128.40;2252.80;;;;;;5030789;28;20372;-53
2022/04/10 04:00:36;;;;;;;5.00;3.33;;;103.30;2227.20;;;;;;5031073;28;20056;-54
2022/04/10 04:03:02;;;;;;;4.40;2.90;;;103.30;2227.20;;;;;;5031003;28;20037;-54
2022/04/10 04:05:28;;;;;;;5.45;3.28;;;128.10;2252.80;;;;;;5030727;28;20038;-55
2022/04/10 04:07:55;;;;;;;5.07;3.97;;;128.00;2252.80;;;;;;5030854;28;20037;-55
2022/04/10 04:10:21;;;;;;;4.25;2.90;;;128.10;2252.80;;;;;;5030668;28;20025;-54
2022/04/10 04:12:46;;;;;;;4.68;3.00;;;128.30;2252.80;;;;;;5030550;28;20488;-55
2022/04/10 04:15:12;;;;;;;9.43;3.38;;;128.40;2252.80;;;;;;5030771;28;20026;-54
2022/04/10 04:17:38;;;;;;;5.38;3.60;;;128.40;2252.80;;;;;;5030588;28;20072;-55
2022/04/10 04:20:06;;;;;;;5.53;3.83;;;128.40;2252.80;;;;;;5030832;28;20026;-54
2022/04/10 04:22:31;;;;;;;5.03;3.30;;;128.30;2252.80;;;;;;5030634;28;20037;-54
2022/04/10 04:24:57;;;;;;;5.70;4.25;;;128.20;2252.80;;;;;;5030517;28;20350;-54
2022/04/10 04:27:23;;;;;;;6.07;3.35;;;128.20;2252.80;;;;;;5030633;28;20127;-54
2022/04/10 04:29:48;;;;;;;6.07;3.75;;;128.30;2252.80;;;;;;5030238;28;20025;-54
2022/04/10 04:32:14;;;;;;;6.95;6.28;;;128.20;2252.80;;;;;;5030668;28;20029;-53
2022/04/10 04:34:40;;;;;;;5.07;3.90;;;128.40;2252.80;;;;;;5030031;28;20446;-54
2022/04/10 04:37:07;;;;;;;6.03;4.15;;;128.30;2252.80;;;;;;5030437;28;20097;-54
2022/04/10 04:39:33;;;;;;;6.40;4.18;;;128.20;2252.80;;;;;;5030624;28;20056;-55
2022/04/10 04:41:59;;;;;;;5.32;3.95;;;128.30;2252.80;;;;;;5029963;28;20433;-54
2022/04/10 04:44:24;;;;;;;4.45;3.63;;;128.30;2252.80;;;;;;5030341;28;20460;-54
2022/04/10 04:46:50;;;;;;;5.50;3.63;;;128.40;2252.80;;;;;;5030309;28;20036;-55
2022/04/10 04:49:16;;;;;;;6.13;3.55;;;128.30;2252.80;;;;;;5030292;28;20051;-55
2022/04/10 04:51:42;;;;;;;7.10;3.60;;;128.20;2252.80;;;;;;5030168;28;20080;-55
2022/04/10 04:54:10;;;;;;;5.82;4.00;;;128.10;2252.80;;;;;;5030091;28;20033;-54
2022/04/10 04:56:36;;;;;;;12.77;7.57;;;128.20;2252.80;;;;;;5030072;28;20026;-54
2022/04/10 04:59:02;;;;;;;6.82;5.43;;;128.30;2252.80;;;;;;5030099;28;20121;-54
2022/04/10 05:01:28;;;;;;;8.57;5.32;;;128.30;2252.80;;;;;;5030126;28;20034;-55
2022/04/10 05:03:53;;;;;;;7.82;4.60;;;128.20;2252.80;;;;;;5030003;28;20049;-54
2022/04/10 05:06:19;;;;;;;5.82;4.55;;;128.20;2252.80;;;;;;5030066;28;20022;-53
2022/04/10 05:08:48;;;;;;;6.57;4.60;;;128.20;2252.80;;;;;;5034120;28;20409;-53
2022/04/10 05:11:14;;;;;;;7.40;5.15;;;128.20;2252.80;;;;;;5034040;28;20051;-54
2022/04/10 05:13:41;;;;;;;7.40;5.20;;;128.20;2252.80;;;;;;5034108;28;20064;-54
2022/04/10 05:16:07;;;;;;;6.63;4.70;;;128.30;2252.80;;;;;;5034089;28;20021;-54
2022/04/10 05:18:33;;;;;;;8.30;5.22;;;128.50;2252.80;;;;;;5034298;28;20034;-54
2022/04/10 05:20:59;;;;;;;6.13;4.60;;;128.40;2252.80;;;;;;5033403;28;20028;-54
2022/04/10 05:23:25;;;;;;;8.13;4.53;;;128.40;2252.80;;;;;;5033950;28;20103;-54
2022/04/10 05:25:51;;;;;;;6.95;4.72;;;128.60;2252.80;;;;;;5033901;28;20014;-54
2022/04/10 05:28:17;;;;;;;7.05;4.97;;;128.70;2252.80;;;;;;5033728;28;20033;-54
2022/04/10 05:30:44;;;;;;;7.80;5.85;;;128.70;2252.80;;;;;;5033819;28;20024;-54
2022/04/10 05:33:10;;;;;;;7.78;4.82;;;128.80;2252.80;;;;;;5031796;28;20033;-55
2022/04/10 05:35:36;;;;;;;6.10;4.85;;;128.80;2252.80;;;;;;5033632;28;20492;-54
2022/04/10 05:38:02;;;;;;;5.90;4.35;;;128.80;2252.80;;;;;;5033765;28;20030;-54
2022/04/10 05:40:28;;;;;;;10.90;6.22;;;128.80;2252.80;;;;;;5033087;28;20033;-54
2022/04/10 05:42:54;;;;;;;10.00;6.47;;;128.80;2252.80;;;;;;5033378;28;20365;-53
2022/04/10 05:45:20;;;;;;;61.40;43.63;;;128.90;2252.80;;;;;;5033402;28;20108;-53
2022/04/10 05:47:46;;;;;;;14.68;11.13;;;153.60;2252.80;;;;;;5033417;28;20037;-55
2022/04/10 05:50:13;;;;;;;16.70;13.10;;;153.70;2252.80;;;;;;5033658;28;20490;-54
2022/04/10 05:52:43;;;;;;;28.13;22.48;;;153.70;2252.80;;;;;;5033134;28;20064;-55
2022/04/10 05:55:10;;;;;;;20.92;16.30;;;153.80;2252.80;;;;;;5033174;28;20030;-54
2022/04/10 05:57:36;;;;;;;8.82;7.03;;;153.90;2252.80;;;;;;5033274;28;20041;-54
2022/04/10 06:00:06;;;;;;;8.05;6.13;;;153.90;2252.80;;;;;;5033259;28;20025;-54
2022/04/10 06:02:32;;;;;;;9.00;5.95;;;153.90;2252.80;;;;;;5033236;28;20475;-55
2022/04/10 06:04:58;;;;;;;10.55;8.30;;;153.90;2252.80;;;;;;5032962;28;20512;-55
2022/04/10 06:07:24;;;;;;;11.35;8.55;;;153.90;2252.80;;;;;;5033044;28;20036;-54
2022/04/10 06:09:50;;;;;;;44.00;29.17;;;153.70;2252.80;;;;;;5032689;28;20032;-54
2022/04/10 06:12:15;;;;;;;17.25;11.20;;;153.60;2252.80;;;;;;5032842;28;20029;-55
2022/04/10 06:14:41;;;;;;;8.77;6.90;;;153.60;2252.80;;;;;;5032902;28;20025;-54
2022/04/10 06:17:07;;;;;;;8.57;5.78;;;153.90;2252.80;;;;;;5033190;28;20103;-54
2022/04/10 06:19:34;;;;;;;8.35;5.78;;;154.00;2252.80;;;;;;5033098;28;20460;-55
2022/04/10 06:22:00;;;;;;;8.57;6.63;;;154.10;2252.80;;;;;;5032774;28;20079;-55
2022/04/10 06:24:27;;;;;;;7.40;5.63;;;154.20;2252.80;;;;;;5032651;28;20075;-55
2022/04/10 06:26:54;;;;;;;8.82;5.78;;;154.00;2252.80;;;;;;5032609;28;20057;-53
2022/04/10 06:29:20;;;;;;;8.95;8.00;;;154.20;2252.80;;;;;;5032133;28;20038;-54
2022/04/10 06:31:46;;;;;;;7.78;5.60;;;154.30;2252.80;;;;;;5031187;28;20468;-54
2022/04/10 06:34:12;;;;;;;8.63;7.47;;;154.30;2252.80;;;;;;5031036;28;20192;-53
2022/04/10 06:36:39;;;;;;;7.65;5.68;;;154.30;2252.80;;;;;;5031517;28;20038;-53
2022/04/10 06:39:05;;;;;;;9.15;7.03;;;154.20;2252.80;;;;;;5032745;28;20036;-52
2022/04/10 06:41:32;;;;;;;8.52;6.10;;;154.20;2252.80;;;;;;5031989;28;20018;-52
2022/04/10 06:43:58;;;;;;;7.78;5.22;;;154.10;2252.80;;;;;;5031626;28;20159;-53
2022/04/10 06:46:26;;;;;;;8.00;5.82;;;154.30;2252.80;;;;;;5032012;28;20104;-51
2022/04/10 06:48:54;;;;;;;8.43;5.85;;;154.20;2252.80;;;;;;5029395;28;20030;-53
2022/04/10 06:51:23;;;;;;;7.75;5.95;;;154.10;2252.80;;;;;;5031810;28;20022;-54
2022/04/10 06:53:49;;;;;;;8.48;5.35;;;153.90;2252.80;;;;;;5032112;28;20030;-54
2022/04/10 06:56:15;;;;;;;8.88;6.10;;;153.80;2252.80;;;;;;5032171;28;20025;-54
2022/04/10 06:58:41;;;;;;;6.63;4.75;;;153.90;2252.80;;;;;;5032069;28;20487;-51
2022/04/10 07:01:08;;;;;;;8.07;5.47;;;153.80;2252.80;;;;;;5032092;28;20071;-54
2022/04/10 07:03:34;;;;;;;6.05;4.70;;;154.10;2252.80;;;;;;5031885;28;20033;-53
2022/04/10 07:06:00;;;;;;;9.07;5.75;;;154.00;2252.80;;;;;;5031845;28;20032;-53
2022/04/10 07:08:26;;;;;;;8.40;4.97;;;154.10;2252.80;;;;;;5032130;28;20033;-52
2022/04/10 07:10:53;;;;;;;7.18;5.03;;;154.10;2252.80;;;;;;5032014;28;20025;-54
2022/04/10 07:13:20;;;;;;;7.72;4.53;;;154.20;2252.80;;;;;;5031865;28;20112;-53
2022/04/10 07:15:52;;;;;;;7.63;5.25;;;154.50;2252.80;;;;;;5031880;28;20062;-52
2022/04/10 07:18:18;;;;;;;6.70;4.97;;;154.40;2252.80;;;;;;5031761;28;20064;-53
2022/04/10 07:20:45;;;;;;;6.15;4.78;;;179.20;2252.80;;;;;;5031831;28;20476;-52
2022/04/10 07:25:56;;;;;;;8.27;5.30;;;179.60;2252.80;;;;;;5032040;28;20264;-53
2022/04/10 07:28:21;;;;;;;7.13;5.15;;;179.70;2252.80;;;;;;5031533;28;20091;-54
2022/04/10 07:30:47;;;;;;;7.93;5.25;;;179.60;2252.80;;;;;;5031055;28;20017;-54
2022/04/10 07:33:13;;;;;;;9.25;5.72;;;179.60;2252.80;;;;;;5031241;28;20030;-53
2022/04/10 07:35:40;;;;;;;7.53;5.60;;;179.60;2252.80;;;;;;5031131;28;20037;-54
2022/04/10 07:38:06;;;;;;;9.05;6.50;;;179.50;2252.80;;;;;;5031327;28;20479;-54
2022/04/10 07:40:38;;;;;;;8.43;6.13;;;179.60;2252.80;;;;;;5031690;28;20025;-53
2022/04/10 07:43:04;;;;;;;9.65;5.70;;;179.70;2252.80;;;;;;5031391;28;20496;-53
2022/04/10 07:48:14;;;;;;;13.45;7.30;;;204.90;2252.80;;;;;;5031472;28;20036;-54
2022/04/10 07:50:40;;;;;;;11.68;5.43;;;205.00;2252.80;;;;;;5030782;28;20049;-54
2022/04/10 07:53:06;;;;;;;9.70;5.97;;;204.80;2252.80;;;;;;5031295;28;20111;-54
2022/04/10 07:55:32;;;;;;;10.18;5.63;;;204.80;2252.80;;;;;;5031107;28;20486;-54
2022/04/10 07:57:57;;;;;;;6.55;5.47;;;204.90;2252.80;;;;;;5030720;28;20029;-55
2022/04/10 08:00:24;;;;;;;8.90;6.57;;;180.10;2252.80;;;;;;5031170;28;20021;-54
2022/04/10 08:02:49;;;;;;;8.30;5.55;;;180.10;2252.80;;;;;;5030658;28;20033;-54
2022/04/10 08:05:16;;;;;;;7.38;4.78;;;180.00;2252.80;;;;;;5031049;28;20913;-53
2022/04/10 08:07:44;;;;;;;8.25;5.40;;;180.00;2252.80;;;;;;5030830;28;20044;-53
2022/04/10 08:10:10;;;;;;;8.32;5.35;;;179.90;2252.80;;;;;;5030905;28;20028;-54
2022/04/10 08:12:36;;;;;;;9.23;6.05;;;179.80;2252.80;;;;;;5030745;28;20101;-54
2022/04/10 08:15:03;;;;;;;7.60;5.45;;;180.00;2252.80;;;;;;5031098;28;20060;-53
2022/04/10 08:17:29;;;;;;;21.65;11.85;;;180.10;2252.80;;;;;;5030615;28;20128;-54
2022/04/10 08:19:55;;;;;;;7.72;4.97;;;204.80;2252.80;;;;;;5030777;28;20535;-54
2022/04/10 08:22:27;;;;;;;7.03;5.95;;;180.10;2252.80;;;;;;5030583;28;20029;-53
2022/04/10 08:24:53;;;;;;;10.95;8.07;;;180.00;2252.80;;;;;;5030945;28;20415;-53
2022/04/10 08:27:19;;;;;;;10.88;9.27;;;180.00;2252.80;;;;;;5030245;28;20029;-54
2022/04/10 08:29:45;;;;;;;7.78;5.55;;;180.10;2252.80;;;;;;5030474;28;20383;-53
2022/04/10 08:32:11;;;;;;;7.95;6.32;;;180.00;2252.80;;;;;;5030440;28;20048;-53
2022/04/10 08:34:37;;;;;;;8.60;6.25;;;180.00;2252.80;;;;;;5030049;28;20045;-53
2022/04/10 08:37:06;;;;;;;10.82;7.60;;;179.70;2252.80;;;;;;5030365;28;20026;-51
2022/04/10 08:39:35;;;;;;;27.38;23.30;;;179.70;2252.80;;;;;;5030178;28;20076;-53
2022/04/10 08:42:03;;;;;;;13.30;7.22;;;179.60;2252.80;;;;;;5029196;28;20021;-55
2022/04/10 08:44:30;;;;;;;11.48;7.85;;;179.70;2252.80;;;;;;5030361;28;20108;-53
2022/04/10 08:46:59;;;;;;;103.60;76.85;;;179.70;2252.80;;;;;;5030170;28;20028;-52
2022/04/10 08:49:26;;;;;;;15.88;11.65;;;179.90;2252.80;;;;;;5030349;28;20030;-52
2022/04/10 08:51:53;;;;;;;12.82;8.10;;;204.90;2252.80;;;;;;5030339;28;20487;-53
2022/04/10 08:54:23;;;;;;;11.82;8.55;;;205.00;2252.80;;;;;;5030117;28;20511;-53
2022/04/10 08:56:52;;;;;;;14.38;9.60;;;205.20;2252.80;;;;;;5030213;28;20048;-52
2022/04/10 08:59:18;;;;;;;12.65;8.57;;;205.30;2252.80;;;;;;5029822;28;20412;-52
2022/04/10 09:01:44;;;;;;;12.52;10.02;;;205.20;2252.80;;;;;;5030381;28;20100;-52
2022/04/10 09:04:10;;;;;;;14.20;9.48;;;205.20;2252.80;;;;;;5028350;28;20120;-52
2022/04/10 09:06:42;;;;;;;13.48;10.75;;;205.60;2252.80;;;;;;5030390;28;20504;-54
2022/04/10 09:09:11;;;;;;;18.20;11.07;;;230.40;2252.80;;;;;;5029728;28;20673;-53
2022/04/10 09:11:39;;;;;;;12.32;10.98;;;230.80;2252.80;;;;;;5030145;28;20026;-53
2022/04/10 09:14:06;;;;;;;14.40;11.20;;;231.30;2252.80;;;;;;5030132;28;20029;-54
2022/04/10 09:16:32;;;;;;;13.77;10.65;;;256.00;2252.80;;;;;;5030047;28;20552;-52
2022/04/10 09:19:01;;;;;;;18.30;14.35;;;231.30;2252.80;;;;;;5029227;28;20049;-54
2022/04/10 09:21:30;;;;;;;14.57;12.45;;;231.00;2252.80;;;;;;5028012;28;20038;-53
2022/04/10 09:24:01;;;;;;;13.30;11.68;;;230.90;2252.80;;;;;;5028391;28;20029;-59
2022/04/10 09:26:46;;;;;;;15.45;12.27;;;230.90;2252.80;;;;;;5027712;28;20025;-58
2022/04/10 09:29:13;;;;;;;20.33;16.33;;;231.00;2252.80;;;;;;5025685;28;20029;-56
2022/04/10 09:31:39;;;;;;;16.52;12.45;;;230.90;2252.80;;;;;;5028248;28;20029;-60
2022/04/10 09:34:06;;;;;;;15.63;13.57;;;230.80;2252.80;;;;;;5028479;28;20076;-61
2022/04/10 09:36:41;;;;;;;22.80;17.65;;;230.90;2252.80;;;;;;5026056;28;20033;-61
2022/04/10 09:39:08;;;;;;;15.63;12.13;;;230.60;2252.80;;;;;;5028629;28;20141;-57
2022/04/10 09:41:34;;;;;;;14.80;12.35;;;230.50;2252.80;;;;;;5029008;28;20112;-59
2022/04/10 09:44:22;;;;;;;14.73;11.98;;;205.70;2252.80;;;;;;5029387;28;20033;-63
2022/04/10 09:47:06;;;;;;;14.95;11.43;;;205.60;2252.80;;;;;;5029183;28;20064;-58
2022/04/10 09:49:41;;;;;;;16.52;12.13;;;205.40;2252.80;;;;;;5029478;28;20601;-62
2022/04/10 09:52:11;;;;;;;17.00;13.23;;;205.50;2252.80;;;;;;5026460;28;20419;-57
2022/04/10 09:54:41;;;;;;;18.02;12.73;;;205.60;2252.80;;;;;;5032960;28;20018;-57
2022/04/10 09:57:11;;;;;;;16.23;13.27;;;205.50;2252.80;;;;;;5033313;28;20431;-56
2022/04/10 09:59:52;;;;;;;15.60;12.50;;;205.70;2252.80;;;;;;5033039;28;20025;-61
2022/04/10 10:02:20;;;;;;;14.63;12.85;;;205.60;2252.80;;;;;;5032937;28;20052;-60
2022/04/10 10:04:47;;;;;;;14.50;11.57;;;230.40;2252.80;;;;;;5033141;28;20123;-61
2022/04/10 10:07:15;;;;;;;14.65;10.82;;;205.70;2252.80;;;;;;5032896;28;20030;-61
2022/04/10 10:09:42;;;;;;;32.10;27.33;;;205.70;2252.80;;;;;;5033232;28;20033;-60
2022/04/10 10:12:09;;;;;;;19.15;14.90;;;230.50;2252.80;;;;;;5031971;28;20366;-60
2022/04/10 10:14:36;;;;;;;15.38;13.68;;;230.50;2252.80;;;;;;5033366;28;20029;-61
2022/04/10 10:17:03;;;;;;;18.48;11.77;;;230.50;2252.80;;;;;;5033210;28;20104;-61
2022/04/10 10:19:34;;;;;;;16.92;11.73;;;230.40;2252.80;;;;;;5032378;28;20029;-61
2022/04/10 10:22:00;;;;;;;20.38;15.57;;;230.60;2252.80;;;;;;5032699;28;20037;-60
2022/04/10 10:24:30;;;;;;;18.27;14.40;;;230.60;2252.80;;;;;;5033075;28;20028;-58
2022/04/10 10:27:20;;;;;;;19.50;15.52;;;230.50;2252.80;;;;;;5032234;28;20029;-60
2022/04/10 10:30:07;;;;;;;15.38;12.48;;;230.80;2252.80;;;;;;5031167;28;20033;-58
2022/04/10 10:32:44;;;;;;;17.15;15.18;;;231.20;2252.80;;;;;;5030315;28;20036;-58
2022/04/10 10:35:26;;;;;;;15.15;13.60;;;256.50;2252.80;;;;;;5030809;28;20080;-59
2022/04/10 10:37:53;;;;;;;14.05;11.32;;;256.60;2252.80;;;;;;5031062;28;20039;-61
2022/04/10 10:40:20;;;;;;;14.95;12.85;;;256.70;2252.80;;;;;;5030864;28;20037;-60
2022/04/10 10:42:48;;;;;;;15.73;14.20;;;256.40;2252.80;;;;;;5030983;28;20666;-60
2022/04/10 10:45:33;;;;;;;14.43;11.82;;;231.30;2252.80;;;;;;5030565;28;20030;-58
2022/04/10 10:48:25;;;;;;;16.00;12.15;;;230.90;2252.80;;;;;;5030758;28;20041;-60
2022/04/10 10:50:54;;;;;;;51.83;35.20;;;205.70;2252.80;;;;;;5030738;28;20037;-62
2022/04/10 10:53:43;;;;;;;17.92;13.68;;;205.70;2252.80;;;;;;5030556;28;20032;-62
2022/04/10 10:56:18;;;;;;;14.48;12.07;;;230.70;2252.80;;;;;;5030633;28;20541;-56
2022/04/10 10:58:45;;;;;;;17.45;12.60;;;231.10;2252.80;;;;;;5030158;28;20060;-62
2022/04/10 11:01:20;;;;;;;13.35;10.20;;;256.20;2252.80;;;;;;5030595;28;20375;-62
2022/04/10 11:04:03;;;;;;;45.17;29.73;;;256.50;2252.80;;;;;;5029660;28;20075;-60
2022/04/10 11:06:43;;;;;;;27.23;23.75;;;256.90;2252.80;;;;;;5026662;28;20037;-61
2022/04/10 11:09:20;;;;;;;16.83;14.63;;;256.80;2252.80;;;;;;5026403;28;20507;-58
2022/04/10 11:11:48;;;;;;;39.28;27.85;;;281.60;2278.40;;;;;;5028584;28;20071;-57
2022/04/10 11:14:38;;;;;;;19.60;12.98;;;282.00;2278.40;;;;;;5029058;28;20021;-58
2022/04/10 11:17:20;;;;;;;25.45;17.30;;;282.40;2278.40;;;;;;5028565;28;20029;-59
2022/04/10 11:19:51;;;;;;;10.80;9.13;;;282.20;2278.40;;;;;;5028992;28;20372;-60
2022/04/10 11:22:30;;;;;;;11.25;10.15;;;282.20;2278.40;;;;;;5029185;28;20029;-63
2022/04/10 11:25:00;;;;;;;12.02;9.65;;;282.30;2278.40;;;;;;5028469;28;20025;-56
2022/04/10 11:27:45;;;;;;;9.35;7.80;;;282.40;2278.40;;;;;;5026444;28;20108;-58
2022/04/10 11:30:15;;;;;;;9.77;8.63;;;282.30;2278.40;;;;;;5028282;28;20022;-56
2022/04/10 11:32:41;;;;;;;14.55;9.25;;;282.40;2278.40;;;;;;5027368;28;20038;-56
2022/04/10 11:35:14;;;;;;;12.55;11.30;;;282.50;2278.40;;;;;;5028016;28;20068;-58
2022/04/10 11:37:39;;;;;;;13.77;12.30;;;282.30;2278.40;;;;;;5027571;28;20098;-62
2022/04/10 11:40:08;;;;;;;14.88;11.05;;;282.10;2278.40;;;;;;5026428;28;20025;-57
2022/04/10 11:42:34;;;;;;;12.43;9.45;;;281.80;2278.40;;;;;;5028000;28;20684;-57
2022/04/10 11:45:00;;;;;;;12.38;10.35;;;256.80;2252.80;;;;;;5027593;28;20124;-57
2022/04/10 11:47:26;;;;;;;12.40;10.23;;;256.70;2252.80;;;;;;5027975;28;20037;-57
2022/04/10 11:49:53;;;;;;;10.27;9.18;;;256.90;2252.80;;;;;;5028142;28;20487;-59
2022/04/10 11:52:19;;;;;;;11.73;9.38;;;256.70;2252.80;;;;;;5027570;28;20041;-57
2022/04/10 11:54:45;;;;;;;11.55;9.85;;;256.70;2252.80;;;;;;5028525;28;20026;-60
2022/04/10 11:57:11;;;;;;;12.07;10.38;;;256.90;2252.80;;;;;;5027867;28;20495;-58
2022/04/10 11:59:39;;;;;;;11.52;10.15;;;256.90;2252.80;;;;;;5027475;28;20017;-61
2022/04/10 12:02:08;;;;;;;13.52;9.95;;;256.90;2252.80;;;;;;5027632;28;20499;-62
2022/04/10 12:04:36;;;;;;;12.98;9.88;;;281.70;2278.40;;;;;;5027479;28;20048;-59
2022/04/10 12:07:20;;;;;;;10.10;9.02;;;256.80;2252.80;;;;;;5025556;28;20388;-59
2022/04/10 12:09:48;;;;;;;13.60;10.43;;;256.60;2252.80;;;;;;5026027;28;20048;-57
2022/04/10 12:12:16;;;;;;;11.27;9.80;;;281.70;2278.40;;;;;;5027819;28;20372;-58
2022/04/10 12:14:41;;;;;;;10.30;8.65;;;281.60;2278.40;;;;;;5026797;28;20085;-57
2022/04/10 12:17:18;;;;;;;11.20;9.52;;;281.90;2278.40;;;;;;5026728;28;20041;-61
2022/04/10 12:19:44;;;;;;;11.07;9.90;;;281.90;2278.40;;;;;;5026444;28;20120;-64